Time;durP1;ratioP1;P1;durP2;ratioP2;P2;SDS_P1;SDS_P2;PMS_P1;PMS_P2;Temp;Humidity;BMP_temperature;BMP_pressure;BME280_temperature;BME280_humidity;BME280_pressure;Samples;Min_cycle;Max_cycle;Signal;HPM_P1;HPM_P2
2021/11/25 00:01:20;;;;;;;22.30;13.50;;;2.80;99.90;;;;;;5046217;28;20553;-73
2021/11/25 00:03:45;;;;;;;17.63;12.95;;;3.10;99.90;;;;;;5048979;28;20179;-73
2021/11/25 00:06:11;;;;;;;17.83;10.93;;;2.80;99.90;;;;;;5048901;28;20182;-73
2021/11/25 00:08:36;;;;;;;16.73;10.50;;;2.80;99.90;;;;;;5048398;28;20190;-73
2021/11/25 00:11:02;;;;;;;20.07;11.50;;;3.00;99.90;;;;;;5048298;28;20529;-72
2021/11/25 00:13:27;;;;;;;16.73;11.00;;;2.70;99.90;;;;;;5048484;28;20356;-73
2021/11/25 00:15:53;;;;;;;17.10;11.10;;;3.00;99.90;;;;;;5048228;28;20202;-74
2021/11/25 00:18:19;;;;;;;20.47;14.60;;;2.80;99.90;;;;;;5048484;28;20211;-73
2021/11/25 00:20:45;;;;;;;18.90;12.97;;;3.00;99.90;;;;;;5047829;28;20264;-73
2021/11/25 00:23:11;;;;;;;21.35;12.85;;;2.80;99.90;;;;;;5047920;28;20477;-73
2021/11/25 00:25:38;;;;;;;18.97;12.90;;;3.10;99.90;;;;;;5046542;28;20225;-73
2021/11/25 00:28:03;;;;;;;18.52;11.57;;;2.90;99.90;;;;;;5049253;28;20269;-73
2021/11/25 00:30:29;;;;;;;17.17;11.40;;;2.90;99.90;;;;;;5052234;28;20621;-73
2021/11/25 00:32:55;;;;;;;16.50;10.10;;;3.00;99.90;;;;;;5052111;28;20187;-74
2021/11/25 00:35:20;;;;;;;19.77;10.63;;;3.20;99.90;;;;;;5050846;28;20233;-73
2021/11/25 00:37:47;;;;;;;23.50;13.10;;;3.00;99.90;;;;;;5051959;28;20187;-73
2021/11/25 00:40:17;;;;;;;22.23;16.08;;;3.00;99.90;;;;;;5052303;28;20183;-74
2021/11/25 00:42:43;;;;;;;18.13;11.25;;;2.90;99.90;;;;;;5052242;28;20182;-73
2021/11/25 00:45:10;;;;;;;17.80;10.90;;;2.90;99.90;;;;;;5052465;28;20187;-73
2021/11/25 00:47:36;;;;;;;17.55;10.75;;;2.70;99.90;;;;;;5052669;28;20240;-75
2021/11/25 00:50:04;;;;;;;17.20;10.68;;;2.80;99.90;;;;;;5050554;28;20183;-75
2021/11/25 00:52:29;;;;;;;14.35;9.55;;;2.60;99.90;;;;;;5051907;28;20198;-75
2021/11/25 00:54:55;;;;;;;16.60;9.47;;;2.80;99.90;;;;;;5052117;28;20248;-74
2021/11/25 00:57:21;;;;;;;14.77;9.83;;;2.60;99.90;;;;;;5052389;28;20187;-75
2021/11/25 00:59:46;;;;;;;15.53;11.33;;;2.70;99.90;;;;;;5051244;28;20740;-74
2021/11/25 01:02:12;;;;;;;15.30;9.37;;;2.80;99.90;;;;;;5052497;28;20228;-73
2021/11/25 01:04:37;;;;;;;12.67;9.10;;;2.80;99.90;;;;;;5052113;28;20190;-75
2021/11/25 01:07:03;;;;;;;16.70;10.00;;;2.70;99.90;;;;;;5052190;28;20197;-75
2021/11/25 01:09:29;;;;;;;15.45;9.40;;;3.00;99.90;;;;;;5050617;28;20182;-74
2021/11/25 01:12:01;;;;;;;17.50;9.50;;;3.00;99.90;;;;;;5050164;28;21021;-75
2021/11/25 01:14:28;;;;;;;18.27;11.35;;;2.60;99.90;;;;;;5050009;28;20218;-75
2021/11/25 01:16:53;;;;;;;14.25;10.13;;;3.00;99.90;;;;;;5049573;28;20584;-74
2021/11/25 01:19:19;;;;;;;17.67;9.70;;;3.10;99.90;;;;;;5049708;28;20198;-74
2021/11/25 01:21:44;;;;;;;19.13;10.20;;;2.80;99.90;;;;;;5047174;28;20198;-74
2021/11/25 01:24:10;;;;;;;16.87;10.33;;;2.70;99.90;;;;;;5047465;28;20591;-74
2021/11/25 01:26:37;;;;;;;16.83;10.15;;;2.60;99.90;;;;;;5048964;28;20669;-74
2021/11/25 01:29:02;;;;;;;15.43;10.20;;;3.00;99.90;;;;;;5047476;28;20217;-74
2021/11/25 01:31:28;;;;;;;17.40;11.07;;;2.70;99.90;;;;;;5048951;28;20195;-74
2021/11/25 01:33:54;;;;;;;15.20;9.90;;;2.80;99.90;;;;;;5046343;28;20476;-74
2021/11/25 01:36:19;;;;;;;12.90;9.47;;;2.60;99.90;;;;;;5049480;28;20265;-73
2021/11/25 01:38:45;;;;;;;16.90;10.53;;;2.60;99.90;;;;;;5048830;28;20392;-73
2021/11/25 01:41:11;;;;;;;16.07;9.40;;;2.70;99.90;;;;;;5051141;28;20175;-73
2021/11/25 01:43:38;;;;;;;14.60;9.43;;;2.90;99.90;;;;;;5051287;28;20617;-74
2021/11/25 01:46:14;;;;;;;17.58;10.70;;;2.90;99.90;;;;;;5050954;28;20187;-74
2021/11/25 01:48:40;;;;;;;20.67;9.93;;;2.80;99.90;;;;;;5048596;28;20206;-74
2021/11/25 01:51:06;;;;;;;16.83;11.02;;;2.70;99.90;;;;;;5050158;28;20186;-74
2021/11/25 01:53:32;;;;;;;17.30;11.20;;;2.90;99.90;;;;;;5050661;28;20232;-75
2021/11/25 01:55:58;;;;;;;20.50;11.75;;;2.70;99.90;;;;;;5050731;28;20215;-74
2021/11/25 01:58:24;;;;;;;17.85;10.68;;;2.90;99.90;;;;;;5048605;28;20225;-74
2021/11/25 02:00:53;;;;;;;17.87;10.77;;;2.60;99.90;;;;;;5051126;28;20198;-74
2021/11/25 02:03:19;;;;;;;15.57;10.68;;;2.70;99.90;;;;;;5049661;28;20197;-74
2021/11/25 02:05:45;;;;;;;16.47;9.57;;;2.80;99.90;;;;;;5050975;28;20182;-75
2021/11/25 02:08:10;;;;;;;19.00;10.40;;;2.60;99.90;;;;;;5050657;28;20528;-74
2021/11/25 02:10:39;;;;;;;19.67;11.33;;;2.70;99.90;;;;;;5050474;28;20440;-74
2021/11/25 02:13:05;;;;;;;18.02;11.40;;;2.90;99.90;;;;;;5049953;28;20326;-74
2021/11/25 02:15:35;;;;;;;14.13;10.00;;;2.80;99.90;;;;;;5050326;28;20213;-73
2021/11/25 02:18:05;;;;;;;14.45;10.40;;;2.60;99.90;;;;;;5050432;28;20210;-74
2021/11/25 02:20:40;;;;;;;18.85;11.07;;;2.70;99.90;;;;;;5049839;28;20229;-74
2021/11/25 02:23:07;;;;;;;15.45;10.40;;;2.80;99.90;;;;;;5049687;28;20200;-74
2021/11/25 02:25:33;;;;;;;15.10;9.10;;;2.60;99.90;;;;;;5049701;28;20317;-74
2021/11/25 02:27:59;;;;;;;19.10;10.67;;;2.60;99.90;;;;;;5050174;28;20317;-74
2021/11/25 02:30:24;;;;;;;19.30;10.10;;;2.60;99.90;;;;;;5050767;28;20309;-74
2021/11/25 02:32:50;;;;;;;13.83;8.43;;;2.50;99.90;;;;;;5050099;28;20194;-74
2021/11/25 02:35:20;;;;;;;15.20;10.20;;;2.60;99.90;;;;;;5049444;28;20217;-74
2021/11/25 02:37:47;;;;;;;15.07;10.00;;;2.70;99.90;;;;;;5050116;28;20448;-73
2021/11/25 02:40:15;;;;;;;15.95;10.05;;;2.60;99.90;;;;;;5050437;28;20182;-74
2021/11/25 02:42:40;;;;;;;15.68;9.80;;;2.50;99.90;;;;;;5050370;28;20190;-74
2021/11/25 02:45:06;;;;;;;15.70;10.27;;;2.60;99.90;;;;;;5049100;28;20191;-74
2021/11/25 02:47:32;;;;;;;16.10;10.50;;;3.00;99.90;;;;;;5050154;28;20213;-74
2021/11/25 02:49:57;;;;;;;20.57;10.60;;;2.50;99.90;;;;;;5049300;28;20282;-74
2021/11/25 02:52:25;;;;;;;18.40;11.23;;;2.50;99.90;;;;;;5049168;28;20706;-73
2021/11/25 02:54:51;;;;;;;15.52;9.50;;;2.50;99.90;;;;;;5049284;28;20217;-74
2021/11/25 02:57:17;;;;;;;15.10;9.53;;;2.50;99.90;;;;;;5049394;28;20377;-74
2021/11/25 02:59:42;;;;;;;15.80;9.30;;;2.50;99.90;;;;;;5049751;28;20432;-74
2021/11/25 03:02:08;;;;;;;19.97;11.67;;;2.80;99.90;;;;;;5048087;28;20188;-74
2021/11/25 03:04:33;;;;;;;16.10;9.83;;;2.50;99.90;;;;;;5049261;28;20245;-74
2021/11/25 03:06:59;;;;;;;18.90;12.00;;;2.80;99.90;;;;;;5049414;28;20317;-74
2021/11/25 03:09:25;;;;;;;21.13;12.27;;;2.80;99.90;;;;;;5049729;28;20210;-73
2021/11/25 03:11:53;;;;;;;17.43;10.40;;;2.80;99.90;;;;;;5049905;28;20189;-74
2021/11/25 03:14:19;;;;;;;16.10;10.40;;;2.50;99.90;;;;;;5048954;28;20203;-74
2021/11/25 03:16:45;;;;;;;17.33;11.00;;;2.60;99.90;;;;;;5049316;28;20602;-74
2021/11/25 03:19:12;;;;;;;23.63;11.97;;;2.70;99.90;;;;;;5049499;28;20737;-74
2021/11/25 03:21:38;;;;;;;21.88;10.90;;;2.70;99.90;;;;;;5048850;28;20437;-75
2021/11/25 03:24:04;;;;;;;15.53;10.37;;;2.80;99.90;;;;;;5049058;28;20712;-74
2021/11/25 03:26:30;;;;;;;18.45;11.05;;;2.50;99.90;;;;;;5049143;28;20186;-74
2021/11/25 03:29:00;;;;;;;18.60;12.20;;;2.70;99.90;;;;;;5049111;28;20187;-74
2021/11/25 03:31:29;;;;;;;20.52;12.07;;;2.60;99.90;;;;;;5049578;28;20179;-74
2021/11/25 03:33:57;;;;;;;18.58;10.45;;;2.50;99.90;;;;;;5048552;28;20191;-75
2021/11/25 03:36:24;;;;;;;18.60;11.27;;;2.50;99.90;;;;;;5049312;28;20175;-74
2021/11/25 03:38:50;;;;;;;18.60;11.90;;;2.50;99.90;;;;;;5049152;28;20197;-74
2021/11/25 03:41:17;;;;;;;18.00;10.55;;;2.70;99.90;;;;;;5049320;28;20274;-74
2021/11/25 03:43:43;;;;;;;22.52;10.73;;;2.70;99.90;;;;;;5048989;28;20601;-74
2021/11/25 03:46:09;;;;;;;18.53;11.57;;;2.40;99.90;;;;;;5048909;28;20198;-74
2021/11/25 03:48:34;;;;;;;19.80;11.30;;;2.50;99.90;;;;;;5048552;28;20456;-75
2021/11/25 03:51:03;;;;;;;20.43;11.50;;;2.70;99.90;;;;;;5030990;28;20930;-74
2021/11/25 03:53:29;;;;;;;17.83;10.73;;;2.80;99.90;;;;;;5047106;28;20194;-75
2021/11/25 03:55:55;;;;;;;19.40;11.02;;;2.50;99.90;;;;;;5049010;28;20210;-74
2021/11/25 03:58:21;;;;;;;16.83;10.70;;;2.50;99.90;;;;;;5048480;28;20528;-75
2021/11/25 04:00:48;;;;;;;16.57;10.47;;;2.40;99.90;;;;;;5048424;28;20944;-74
2021/11/25 04:03:14;;;;;;;17.98;9.95;;;2.40;99.90;;;;;;5048669;28;20174;-74
2021/11/25 04:05:40;;;;;;;17.98;10.25;;;2.60;99.90;;;;;;5042642;28;20190;-74
2021/11/25 04:08:06;;;;;;;18.23;11.50;;;2.40;99.90;;;;;;5048335;28;20194;-74
2021/11/25 04:10:32;;;;;;;21.30;11.27;;;2.40;99.90;;;;;;5048844;28;20436;-74
2021/11/25 04:12:57;;;;;;;17.57;11.07;;;2.60;99.90;;;;;;5048687;28;20193;-74
2021/11/25 04:15:23;;;;;;;17.03;11.10;;;2.50;99.90;;;;;;5048393;28;20515;-75
2021/11/25 04:17:49;;;;;;;19.03;10.20;;;2.40;99.90;;;;;;5049052;28;20194;-74
2021/11/25 04:20:15;;;;;;;19.40;10.32;;;2.80;99.90;;;;;;5048017;28;20202;-74
2021/11/25 04:22:41;;;;;;;17.63;10.98;;;2.50;99.90;;;;;;5048443;28;20183;-74
2021/11/25 04:25:08;;;;;;;17.63;10.38;;;2.40;99.90;;;;;;5048516;28;20249;-75
2021/11/25 04:27:34;;;;;;;20.25;11.45;;;2.40;99.90;;;;;;5048791;28;20194;-74
2021/11/25 04:30:48;;;;;;;17.30;11.03;;;2.70;99.90;;;;;;5048149;28;20209;-74
2021/11/25 04:35:35;;;;;;;17.02;10.57;;;2.60;99.90;;;;;;5048906;28;20352;-75
2021/11/25 04:38:21;;;;;;;24.07;13.23;;;2.40;99.90;;;;;;5048250;28;20269;-74
2021/11/25 04:40:50;;;;;;;21.77;12.70;;;2.70;99.90;;;;;;5048527;28;20873;-74
2021/11/25 04:43:18;;;;;;;23.10;14.38;;;2.70;99.90;;;;;;5047930;28;20187;-74
2021/11/25 04:45:46;;;;;;;19.70;11.85;;;2.70;99.90;;;;;;5048567;28;20603;-74
2021/11/25 04:48:13;;;;;;;20.20;12.27;;;2.40;99.90;;;;;;5048251;28;20182;-73
2021/11/25 04:50:39;;;;;;;18.27;11.27;;;2.70;99.90;;;;;;5047898;28;20200;-73
2021/11/25 04:53:05;;;;;;;19.73;10.40;;;2.70;99.90;;;;;;5047574;28;20187;-73
2021/11/25 04:55:31;;;;;;;17.65;10.88;;;2.70;99.90;;;;;;5048125;28;20268;-73
2021/11/25 04:57:57;;;;;;;21.40;11.20;;;2.80;99.90;;;;;;5046492;28;20652;-73
2021/11/25 05:00:23;;;;;;;21.50;10.73;;;2.40;99.90;;;;;;5047584;28;20213;-73
2021/11/25 05:02:49;;;;;;;22.48;13.55;;;2.70;99.90;;;;;;5047703;28;20182;-73
2021/11/25 05:05:15;;;;;;;19.33;11.97;;;2.70;99.90;;;;;;5048417;28;20192;-74
2021/11/25 05:07:41;;;;;;;16.58;10.57;;;2.50;99.90;;;;;;5048072;28;20653;-73
2021/11/25 05:10:09;;;;;;;20.27;12.40;;;2.40;99.90;;;;;;5048351;28;20194;-73
2021/11/25 05:12:37;;;;;;;19.52;11.18;;;2.70;99.90;;;;;;5047993;28;20190;-73
2021/11/25 05:15:29;;;;;;;17.23;12.82;;;2.70;99.90;;;;;;5050392;28;20208;-73
2021/11/25 05:17:55;;;;;;;19.90;11.90;;;2.80;99.90;;;;;;5047878;28;20301;-73
2021/11/25 05:20:21;;;;;;;25.20;12.43;;;2.40;99.90;;;;;;5051064;28;20574;-73
2021/11/25 05:22:47;;;;;;;19.73;11.50;;;2.40;99.90;;;;;;5051757;28;20822;-73
2021/11/25 05:25:15;;;;;;;24.80;11.90;;;2.50;99.90;;;;;;5051321;28;20235;-72
2021/11/25 05:27:40;;;;;;;16.80;10.70;;;2.40;99.90;;;;;;5051578;28;20273;-73
2021/11/25 05:30:09;;;;;;;15.50;11.00;;;2.70;99.90;;;;;;5050614;28;20273;-72
2021/11/25 05:32:35;;;;;;;22.08;11.68;;;2.50;99.90;;;;;;5049850;28;20190;-73
2021/11/25 05:35:00;;;;;;;18.00;9.93;;;2.40;99.90;;;;;;5051280;28;20710;-73
2021/11/25 05:37:26;;;;;;;19.40;10.83;;;2.60;99.90;;;;;;5051213;28;20620;-73
2021/11/25 05:39:51;;;;;;;21.43;11.43;;;2.50;99.90;;;;;;5051791;28;20211;-73
2021/11/25 05:42:18;;;;;;;17.70;10.77;;;2.40;99.90;;;;;;5050845;28;20597;-73
2021/11/25 05:44:44;;;;;;;19.40;10.55;;;2.60;99.90;;;;;;5050932;28;20265;-74
2021/11/25 05:47:10;;;;;;;18.47;11.00;;;2.30;99.90;;;;;;5051551;28;20189;-74
2021/11/25 05:49:36;;;;;;;13.70;9.63;;;2.40;99.90;;;;;;5051082;28;20463;-73
2021/11/25 05:52:02;;;;;;;20.15;10.82;;;2.50;99.90;;;;;;5051411;28;20575;-73
2021/11/25 05:54:28;;;;;;;21.50;12.37;;;2.40;99.90;;;;;;5050939;28;20229;-73
2021/11/25 05:56:53;;;;;;;17.90;11.07;;;2.70;99.90;;;;;;5050661;28;20206;-73
2021/11/25 05:59:19;;;;;;;20.00;11.07;;;2.40;99.90;;;;;;5049959;28;20208;-73
2021/11/25 06:01:44;;;;;;;17.33;10.83;;;2.50;99.90;;;;;;5050575;28;20179;-73
2021/11/25 06:04:10;;;;;;;23.00;13.33;;;2.40;99.90;;;;;;5050917;28;20657;-73
2021/11/25 06:06:35;;;;;;;20.23;12.03;;;2.70;99.90;;;;;;5050013;28;20657;-73
2021/11/25 06:09:02;;;;;;;17.17;11.30;;;2.70;99.90;;;;;;5048431;28;20197;-73
2021/11/25 06:11:28;;;;;;;23.15;11.93;;;2.40;99.90;;;;;;5048510;28;20190;-73
2021/11/25 06:13:53;;;;;;;18.30;12.53;;;2.40;99.90;;;;;;5049648;28;20372;-74
2021/11/25 06:16:19;;;;;;;21.30;11.23;;;2.30;99.90;;;;;;5050451;28;20429;-73
2021/11/25 06:18:45;;;;;;;22.90;12.67;;;2.20;99.90;;;;;;5049169;28;20229;-74
2021/11/25 06:21:11;;;;;;;21.23;12.10;;;2.20;99.90;;;;;;5049822;28;20270;-73
2021/11/25 06:23:36;;;;;;;20.67;12.60;;;2.50;99.90;;;;;;5050527;28;20480;-73
2021/11/25 06:26:02;;;;;;;17.03;10.77;;;2.10;99.90;;;;;;5049722;28;20191;-73
2021/11/25 06:28:28;;;;;;;18.95;12.30;;;2.30;99.90;;;;;;5050447;28;20555;-73
2021/11/25 06:30:54;;;;;;;19.60;12.57;;;2.20;99.90;;;;;;5049861;28;20195;-73
2021/11/25 06:33:19;;;;;;;22.20;11.30;;;2.20;99.90;;;;;;5050297;28;20433;-73
2021/11/25 06:35:45;;;;;;;16.97;10.20;;;2.50;99.90;;;;;;5050147;28;20202;-73
2021/11/25 06:38:11;;;;;;;19.00;11.23;;;2.10;99.90;;;;;;5046539;28;20194;-73
2021/11/25 06:40:37;;;;;;;17.47;11.00;;;2.40;99.90;;;;;;5048886;28;20183;-72
2021/11/25 06:43:07;;;;;;;16.50;10.63;;;2.20;99.90;;;;;;5049456;28;20216;-73
2021/11/25 06:45:34;;;;;;;20.10;10.90;;;2.20;99.90;;;;;;5049695;28;20182;-73
2021/11/25 06:47:59;;;;;;;19.95;10.90;;;2.40;99.90;;;;;;5048091;28;20194;-73
2021/11/25 06:50:25;;;;;;;19.77;11.20;;;2.30;99.90;;;;;;5049149;28;20182;-73
2021/11/25 06:52:51;;;;;;;15.80;10.25;;;2.30;99.90;;;;;;5049966;28;20194;-73
2021/11/25 06:55:18;;;;;;;17.13;10.52;;;2.60;99.90;;;;;;5049377;28;20218;-73
2021/11/25 06:57:48;;;;;;;19.02;12.07;;;2.30;99.90;;;;;;5049746;28;20205;-73
2021/11/25 07:00:16;;;;;;;14.77;10.60;;;2.30;99.90;;;;;;5048915;28;20473;-73
2021/11/25 07:02:42;;;;;;;16.55;9.70;;;2.30;99.90;;;;;;5049168;28;20189;-72
2021/11/25 07:05:09;;;;;;;16.35;11.18;;;2.20;99.90;;;;;;5049535;28;20224;-73
2021/11/25 07:07:35;;;;;;;20.73;11.57;;;2.40;99.90;;;;;;5048908;28;20269;-73
2021/11/25 07:10:03;;;;;;;20.20;12.30;;;2.70;99.90;;;;;;5048285;28;20221;-73
2021/11/25 07:12:28;;;;;;;20.45;11.45;;;2.20;99.90;;;;;;5048786;28;20182;-74
2021/11/25 07:14:54;;;;;;;21.03;11.13;;;2.50;99.90;;;;;;5045766;28;20250;-73
2021/11/25 07:17:19;;;;;;;18.97;12.43;;;2.40;99.90;;;;;;5047263;28;20203;-74
2021/11/25 07:19:45;;;;;;;25.40;13.00;;;2.70;99.90;;;;;;5049147;28;20182;-73
2021/11/25 07:22:10;;;;;;;25.10;14.10;;;2.60;99.90;;;;;;5046434;28;20186;-73
2021/11/25 07:24:36;;;;;;;24.53;12.03;;;2.50;99.90;;;;;;5048776;28;20766;-72
2021/11/25 07:27:03;;;;;;;23.33;13.00;;;2.50;99.90;;;;;;5048866;28;20183;-72
2021/11/25 07:29:29;;;;;;;21.40;12.55;;;2.40;99.90;;;;;;5049251;28;20183;-73
2021/11/25 07:31:55;;;;;;;20.92;11.80;;;2.40;99.90;;;;;;5048697;28;20676;-73
2021/11/25 07:34:20;;;;;;;16.60;11.50;;;2.70;99.90;;;;;;5044817;28;20203;-73
2021/11/25 07:36:46;;;;;;;20.77;12.40;;;2.60;99.90;;;;;;5048149;28;20680;-73
2021/11/25 07:39:12;;;;;;;17.13;10.67;;;2.50;99.90;;;;;;5048588;28;20175;-73
2021/11/25 07:41:38;;;;;;;21.53;11.30;;;2.50;99.90;;;;;;5047828;28;20186;-72
2021/11/25 07:44:05;;;;;;;18.75;11.48;;;2.40;99.90;;;;;;5045354;28;20616;-73
2021/11/25 07:46:31;;;;;;;19.13;11.40;;;2.70;99.90;;;;;;5037429;28;20253;-73
2021/11/25 07:48:58;;;;;;;19.70;10.70;;;2.50;99.90;;;;;;5045585;28;20190;-74
2021/11/25 07:51:24;;;;;;;18.83;11.05;;;2.80;99.90;;;;;;5048702;28;20671;-73
2021/11/25 07:53:50;;;;;;;16.53;11.03;;;2.50;99.90;;;;;;5048011;28;20179;-73
2021/11/25 07:56:15;;;;;;;19.10;11.63;;;2.70;99.90;;;;;;5048212;28;20457;-73
2021/11/25 07:58:41;;;;;;;20.23;11.20;;;2.50;99.90;;;;;;5047210;28;20210;-75
2021/11/25 08:01:06;;;;;;;21.27;11.77;;;2.90;99.90;;;;;;5042557;28;20190;-74
2021/11/25 08:03:32;;;;;;;23.63;12.37;;;2.50;99.90;;;;;;5050029;28;20187;-74
2021/11/25 08:05:58;;;;;;;20.90;11.90;;;3.00;99.90;;;;;;5050371;28;20256;-74
2021/11/25 08:08:23;;;;;;;24.03;12.60;;;2.80;99.90;;;;;;5047565;28;20193;-74
2021/11/25 08:10:49;;;;;;;20.20;12.20;;;2.80;99.90;;;;;;5048172;28;20460;-74
2021/11/25 08:13:14;;;;;;;21.77;12.80;;;2.80;99.90;;;;;;5047958;28;20232;-74
2021/11/25 08:15:40;;;;;;;21.87;13.23;;;3.10;99.90;;;;;;5048481;28;20878;-74
2021/11/25 08:18:06;;;;;;;22.87;11.77;;;2.90;99.90;;;;;;5047220;28;20692;-74
2021/11/25 08:20:32;;;;;;;20.70;13.93;;;3.30;99.90;;;;;;5048080;28;20762;-74
2021/11/25 08:22:58;;;;;;;23.50;13.48;;;3.00;99.90;;;;;;5048508;28;20261;-75
2021/11/25 08:25:28;;;;;;;22.35;11.95;;;3.10;99.90;;;;;;5047468;28;20868;-74
2021/11/25 08:27:57;;;;;;;21.35;12.77;;;3.20;99.90;;;;;;5047881;28;20671;-74
2021/11/25 08:30:24;;;;;;;18.05;12.23;;;3.20;99.90;;;;;;5047031;28;20240;-74
2021/11/25 08:32:51;;;;;;;16.30;10.98;;;3.30;99.90;;;;;;5048369;28;20690;-74
2021/11/25 08:35:16;;;;;;;18.88;11.52;;;3.10;99.90;;;;;;5047529;28;20252;-74
2021/11/25 08:37:42;;;;;;;17.60;11.60;;;3.40;99.90;;;;;;5046260;28;20210;-74
2021/11/25 08:40:11;;;;;;;18.27;10.23;;;3.20;99.90;;;;;;5048176;28;20440;-74
2021/11/25 08:42:37;;;;;;;13.85;9.80;;;3.40;99.90;;;;;;5047490;28;20877;-76
2021/11/25 08:45:05;;;;;;;20.42;11.90;;;3.20;99.90;;;;;;5045357;28;20648;-75
2021/11/25 08:47:31;;;;;;;19.90;12.23;;;3.30;99.90;;;;;;5047012;28;20190;-74
2021/11/25 08:49:57;;;;;;;17.83;11.43;;;3.40;99.90;;;;;;5049373;28;20610;-74
2021/11/25 08:52:22;;;;;;;18.63;11.60;;;3.20;99.90;;;;;;5036400;28;20182;-74
2021/11/25 08:54:48;;;;;;;18.93;12.80;;;3.70;99.90;;;;;;5051305;28;20487;-74
2021/11/25 08:57:14;;;;;;;21.93;12.10;;;3.50;99.90;;;;;;5033163;28;20186;-74
2021/11/25 08:59:39;;;;;;;24.90;12.90;;;3.40;99.90;;;;;;5050838;28;20178;-73
2021/11/25 09:02:05;;;;;;;22.93;11.67;;;3.50;99.90;;;;;;5048560;28;20228;-73
2021/11/25 09:04:30;;;;;;;22.07;12.70;;;3.50;99.90;;;;;;5048821;28;20753;-74
2021/11/25 09:06:56;;;;;;;24.23;13.13;;;3.50;99.90;;;;;;5050279;28;20885;-73
2021/11/25 09:09:22;;;;;;;19.23;11.77;;;3.40;99.90;;;;;;5049046;28;20191;-74
2021/11/25 09:11:47;;;;;;;18.27;11.03;;;3.70;99.90;;;;;;5050454;28;20437;-73
2021/11/25 09:14:13;;;;;;;19.33;11.03;;;3.40;99.90;;;;;;5050966;28;20213;-74
2021/11/25 09:16:39;;;;;;;29.40;13.23;;;3.60;99.90;;;;;;5051028;28;20178;-74
2021/11/25 09:19:05;;;;;;;18.43;11.93;;;3.70;99.90;;;;;;5051422;28;20641;-73
2021/11/25 09:21:32;;;;;;;21.73;12.95;;;3.60;99.90;;;;;;5050155;28;20195;-74
2021/11/25 09:23:59;;;;;;;18.20;11.75;;;3.60;99.90;;;;;;5048495;28;20244;-73
2021/11/25 09:26:25;;;;;;;20.90;11.40;;;3.70;99.90;;;;;;5050803;28;20237;-73
2021/11/25 09:28:51;;;;;;;15.63;10.70;;;3.70;99.90;;;;;;5051543;28;20487;-73
2021/11/25 09:31:18;;;;;;;19.30;12.23;;;3.70;99.90;;;;;;5050559;28;20177;-73
2021/11/25 09:33:44;;;;;;;22.35;12.98;;;3.90;99.90;;;;;;5050163;28;20195;-74
2021/11/25 09:36:10;;;;;;;21.10;11.80;;;4.00;99.90;;;;;;5049085;28;20283;-73
2021/11/25 09:38:36;;;;;;;18.20;11.80;;;3.90;99.90;;;;;;5049185;28;20178;-73
2021/11/25 09:41:03;;;;;;;20.97;12.90;;;4.00;99.90;;;;;;5060170;28;20576;-73
2021/11/25 09:43:29;;;;;;;22.52;13.15;;;3.90;99.90;;;;;;5070219;28;20266;-73
2021/11/25 09:45:55;;;;;;;17.65;11.75;;;4.20;99.90;;;;;;5052215;28;20182;-74
2021/11/25 09:48:23;;;;;;;19.40;11.73;;;4.00;99.90;;;;;;5044488;28;20244;-74
2021/11/25 09:50:50;;;;;;;19.35;11.30;;;4.20;99.90;;;;;;5046446;28;20570;-73
2021/11/25 09:53:19;;;;;;;23.10;12.88;;;4.00;99.90;;;;;;5049695;28;20191;-74
2021/11/25 09:55:48;;;;;;;22.02;12.95;;;4.10;99.90;;;;;;5050214;28;20246;-74
2021/11/25 09:58:16;;;;;;;22.48;13.07;;;4.00;99.90;;;;;;5050603;28;20193;-73
2021/11/25 10:00:43;;;;;;;21.90;13.50;;;4.00;99.90;;;;;;5049399;28;20266;-74
2021/11/25 10:03:15;;;;;;;22.23;12.23;;;4.10;99.90;;;;;;5049711;28;20559;-74
2021/11/25 10:05:41;;;;;;;19.42;11.75;;;3.90;99.90;;;;;;5042702;28;20190;-74
2021/11/25 10:08:57;;;;;;;17.60;12.15;;;4.00;99.90;;;;;;5049998;28;20203;-74
2021/11/25 10:11:32;;;;;;;18.30;11.90;;;4.20;99.90;;;;;;5049615;28;20190;-74
2021/11/25 10:14:08;;;;;;;19.42;12.30;;;4.30;99.90;;;;;;5049837;28;20332;-74
2021/11/25 10:16:46;;;;;;;20.85;12.38;;;4.00;99.90;;;;;;5049475;28;20175;-74
2021/11/25 10:19:16;;;;;;;20.15;11.07;;;4.00;99.90;;;;;;5030528;28;20171;-74
2021/11/25 10:21:55;;;;;;;22.52;14.05;;;3.90;99.90;;;;;;5047484;28;20218;-73
2021/11/25 10:24:35;;;;;;;20.08;13.30;;;4.00;99.90;;;;;;5047458;28;20237;-74
2021/11/25 10:27:25;;;;;;;20.67;12.93;;;4.00;99.90;;;;;;5049143;28;20206;-73
2021/11/25 10:30:09;;;;;;;19.98;11.75;;;4.00;99.90;;;;;;5039344;28;20240;-74
2021/11/25 10:32:34;;;;;;;22.58;13.70;;;3.90;99.90;;;;;;5046587;28;20194;-75
2021/11/25 10:35:25;;;;;;;20.97;12.60;;;4.00;99.90;;;;;;5056897;28;20212;-74
2021/11/25 10:38:21;;;;;;;22.33;13.18;;;4.00;99.90;;;;;;5048808;28;20227;-74
2021/11/25 10:40:45;;;;;;;23.20;13.40;;;3.90;99.90;;;;;;5049343;28;20193;-75
2021/11/25 10:43:25;;;;;;;19.17;12.00;;;4.00;99.90;;;;;;5047367;28;20289;-74
2021/11/25 10:45:53;;;;;;;23.63;13.00;;;4.00;99.90;;;;;;5046369;28;20437;-74
2021/11/25 10:48:36;;;;;;;21.10;12.40;;;4.20;99.90;;;;;;5066376;28;20182;-74
2021/11/25 10:51:24;;;;;;;27.90;14.52;;;4.10;99.90;;;;;;5060082;28;20189;-75
2021/11/25 10:54:10;;;;;;;17.45;11.15;;;4.10;99.90;;;;;;5046035;28;20191;-74
2021/11/25 10:56:42;;;;;;;19.35;11.45;;;4.10;99.90;;;;;;5047980;28;20277;-75
2021/11/25 10:59:11;;;;;;;21.58;12.15;;;4.10;99.90;;;;;;5044530;28;20711;-74
2021/11/25 11:01:41;;;;;;;22.15;13.18;;;4.30;99.90;;;;;;5050992;28;20178;-74
2021/11/25 11:04:11;;;;;;;21.80;13.18;;;4.20;99.90;;;;;;5049247;28;20198;-75
2021/11/25 11:06:39;;;;;;;22.08;12.63;;;4.30;99.90;;;;;;5047795;28;20186;-74
2021/11/25 11:09:09;;;;;;;23.63;15.15;;;4.30;99.90;;;;;;5047297;28;20191;-75
2021/11/25 11:11:37;;;;;;;24.67;13.15;;;4.20;99.90;;;;;;5047742;28;20191;-75
2021/11/25 11:16:49;;;;;;;17.73;11.18;;;4.40;99.90;;;;;;5048961;28;20190;-74
2021/11/25 11:19:16;;;;;;;21.27;12.98;;;4.20;99.90;;;;;;5049026;28;20190;-75
2021/11/25 11:21:51;;;;;;;23.55;13.30;;;4.10;99.90;;;;;;5046411;28;20306;-74
2021/11/25 11:24:23;;;;;;;21.05;12.02;;;4.30;99.90;;;;;;5048016;28;20222;-74
2021/11/25 11:26:51;;;;;;;27.02;15.35;;;4.30;99.90;;;;;;5048967;28;20224;-74
2021/11/25 11:29:22;;;;;;;27.05;17.83;;;4.40;99.90;;;;;;5048478;28;20198;-73
2021/11/25 11:31:51;;;;;;;21.13;12.95;;;4.80;99.90;;;;;;5046568;28;20187;-73
2021/11/25 11:34:18;;;;;;;21.15;12.93;;;4.80;99.90;;;;;;5047968;28;20210;-73
2021/11/25 11:36:52;;;;;;;22.88;13.30;;;4.70;99.90;;;;;;5048324;28;20225;-73
2021/11/25 11:39:20;;;;;;;21.13;11.40;;;4.90;99.80;;;;;;5048510;28;20197;-73
2021/11/25 11:41:48;;;;;;;18.75;12.10;;;4.90;99.40;;;;;;5048479;28;20182;-74
2021/11/25 11:44:19;;;;;;;17.50;11.93;;;5.10;99.10;;;;;;5047836;28;20174;-74
2021/11/25 11:46:46;;;;;;;20.67;12.82;;;5.20;97.90;;;;;;5047439;28;20726;-73
2021/11/25 11:49:12;;;;;;;21.35;13.75;;;5.30;97.50;;;;;;5045115;28;20183;-74
2021/11/25 11:51:38;;;;;;;22.95;12.15;;;5.30;97.80;;;;;;5048098;28;20830;-74
2021/11/25 11:54:19;;;;;;;20.63;12.30;;;5.40;97.60;;;;;;5047549;28;20268;-74
2021/11/25 11:56:46;;;;;;;25.05;13.63;;;5.30;97.40;;;;;;5048486;28;20652;-74
2021/11/25 11:59:12;;;;;;;23.98;12.27;;;5.20;96.70;;;;;;5044751;28;20195;-72
2021/11/25 12:01:39;;;;;;;34.63;27.73;;;5.40;96.50;;;;;;5048011;28;20182;-73
2021/11/25 12:04:04;;;;;;;23.52;14.10;;;5.20;95.20;;;;;;5047969;28;20179;-73
2021/11/25 12:06:46;;;;;;;20.77;12.70;;;5.40;95.20;;;;;;5047872;28;20232;-73
2021/11/25 12:09:14;;;;;;;24.52;14.90;;;5.40;94.70;;;;;;5046697;28;20191;-73
2021/11/25 12:11:55;;;;;;;23.65;15.95;;;5.10;95.00;;;;;;5047992;28;20185;-72
2021/11/25 12:14:31;;;;;;;21.52;13.35;;;5.10;95.60;;;;;;5047372;28;20217;-72
2021/11/25 12:17:03;;;;;;;20.90;14.10;;;5.10;95.70;;;;;;5046612;28;20205;-72
2021/11/25 12:19:38;;;;;;;19.85;12.85;;;5.30;95.80;;;;;;5047369;28;20563;-72
2021/11/25 12:22:27;;;;;;;21.80;13.07;;;5.00;95.60;;;;;;5057177;28;20181;-73
2021/11/25 12:25:00;;;;;;;24.35;14.25;;;5.10;95.20;;;;;;5050598;28;20256;-72
2021/11/25 12:27:31;;;;;;;24.40;14.40;;;5.20;95.30;;;;;;5050407;28;20265;-73
2021/11/25 12:32:47;;;;;;;28.00;21.58;;;5.10;95.10;;;;;;5042951;28;20193;-72
2021/11/25 12:35:17;;;;;;;18.52;11.93;;;5.10;95.20;;;;;;5050549;28;20226;-73
2021/11/25 12:37:56;;;;;;;32.17;22.05;;;4.80;94.70;;;;;;5048830;28;20267;-73
2021/11/25 12:40:21;;;;;;;23.88;15.50;;;4.90;94.50;;;;;;5039934;28;20178;-72
2021/11/25 12:42:58;;;;;;;23.33;16.40;;;5.10;94.50;;;;;;5051599;28;20324;-73
2021/11/25 12:45:38;;;;;;;20.15;14.30;;;4.90;94.40;;;;;;5051320;28;20179;-75
2021/11/25 12:48:11;;;;;;;21.25;13.32;;;5.10;94.70;;;;;;5046167;28;20213;-73
2021/11/25 12:50:50;;;;;;;19.20;11.77;;;5.40;94.40;;;;;;5053265;28;20187;-72